Tema, Ghana
Current Conditions -  °F | °C
As of 12:00 AM on Monday 24 Nov 2014 (Local Time) from DGAA Reporting Station
Clear Clear  
Wind Chill: 82°   Ceiling: Unl
Heat Index: 91°   Visibility: 6mi
Dew Point: 77°   Wind: 7mph
Humidity: 84%   Direction: 230°SW
Pressure: 29.88"   Gusts: NA
Location:  5.64°N, 0.01°E
Report Text: DGAA 240000Z 23006KT CAVOK 28/25 Q1012 NOSIG
Loading
Personal Weather Stations






























Interactive Weather Map New forecast layout! Learn more

10-Day Weather Forecast

Advertisements
Track Severe Weather on mobile